Welcome to the New NWS' Forecast!
Most changes are behind the scenes, but click here for differences you might notice.
Latest weather observations around

COTTAGE (STUC1)

Using International System of Units (Switch to English Units)
Date/ Time (PDT) Wind (kph) Vis. (km) Weather Sky Cond. Temp (°C) Rel. Humidity Wind Chill (°C) Heat Index (°C) Pressure Precip. (cm)
Air Dwpt 6 hour Altimeter (hPa) Sea level (hPa) 1 hr 3 hr 6 hr
Max Min
Jul 19 11:54 SSW 11   Clear   29 7     24%   28          
Jul 19 10:54 SE 10   Clear   29 5     22%   27          
Jul 19 09:54 SSE 6   Clear   27 5     24%   27          
Jul 19 08:54 SE 10   Clear   26 6     28%   25          
Jul 19 07:54 ESE 5   Clear   24 6     31%   23          
Jul 19 06:54 E 6   Clear   23 5     32%   22          
Jul 19 05:54 SSW 5   Clear   22 6     36%   21          
Jul 19 04:54 E 6   Clear   22 6     37%   21          
Jul 19 03:54 NNW 6   Clear   22 6     35%   21          
Jul 19 02:54 NW 8   Clear   21 6     38%              
Jul 19 01:54 NNW 2   Clear   22 8     41%   22          
Jul 19 00:54 WNW 5   Clear   22 10     46%   22          
Jul 18 23:54 E 10   Clear   22 10     45%   22          
Jul 18 22:54 E 13   Clear   22 9     43%   22          
Jul 18 21:54 NNW 10   Clear   22 7     40%   21          
Jul 18 20:54 NW 14   Clear   21 9     46%              
Jul 18 19:54 WNW 21   Clear   24 9     37%   24          
Jul 18 18:54 WNW 18   Clear   28 10     34%   27          
Jul 18 17:54 WNW 13   Clear   30 10     29%   29          
Jul 18 16:54 WNW 14   Clear   31 10     27%   30          
Jul 18 15:54 WNW 13   Clear   32 10     26%   30          
Jul 18 14:54 WNW 10   Clear   32 10     27%   30          
Jul 18 13:54 WNW 10   Clear   30 12     33%   29          
Jul 18 12:54 SSE 11   Clear   28 12     37%   27          
Jul 18 11:54 WSW 6   Clear   30 10     29%   29          
Jul 18 10:54 S 8   Clear   27 10     34%   27          
Jul 18 09:54 SSE 11   Clear   26 9     33%   26          
Jul 18 08:54 SE 8   Clear   24 8     34%   24          
Jul 18 07:54 ESE 10   Clear   23 6     34%   22          
Jul 18 06:54 ESE 8   Clear   22 6     34%   21          
Jul 18 05:54 E 10   Clear   22 6     36%   21          
Jul 18 04:54 E 11   Clear   21 6     38%              
Jul 18 03:54 E 11   Clear   21 7     39%              
Jul 18 02:54 E 13   Clear   21 7     41%              
Jul 18 01:54 ESE 11   Clear   21 8     43%              
Jul 18 00:54 E 11   Clear   22 7     40%   21          
Jul 17 23:54 E 6   Clear   22 7     38%   21          
Jul 17 22:54 SSE 5   Clear   23 7     35%   22          
Jul 17 21:54 NW 10   Clear   21 8     44%              
Jul 17 20:54 NW 16   Clear   21 8     45%              
Jul 17 19:54 WNW 19   Clear   23 9     41%   23          
Jul 17 18:54 WNW 19   Clear   26 9     35%   25          
Jul 17 17:54 WNW 19   Clear   27 9     32%   27          
Jul 17 16:54 W 18   Clear   30 9     28%   29          
Jul 17 15:54 WNW 8   Clear   32 7     22%   30          
Jul 17 14:54 SSW 11   Clear   31 5     20%   29          
Jul 17 13:54 S 13   Clear   30 6     22%   28          
Jul 17 12:54 W 6   Clear   31 8     24%   29          
Jul 17 11:54 S 8   Clear   29 10     30%   28          
Jul 17 10:54 W 5   Clear   29 10     30%   28          
Jul 17 09:54 W 5   Clear   27 10     33%   27          
Jul 17 08:54 WNW 6   Clear   26 8     32%   25          
Jul 17 07:54 NW 6   Clear   23 7     36%   23          
Jul 17 06:54 NW 6   Clear   22 7     38%   21          
Jul 17 05:54 NNW 5   Clear   21 7     40%              
Jul 17 04:54 ENE 5   Clear   21 8     42%              
Jul 17 03:54 Calm   Clear   21 8     43%              
Jul 17 02:54 SE 3   Clear   21 8     42%              
Jul 17 01:54 W 3   Clear   21 8     43%              
Jul 17 00:54 ESE 6   Clear   22 7     40%   21          
Jul 16 23:54 ENE 11   Clear   22 9     43%   21          
Jul 16 22:54 ENE 11   Clear   22 7     40%   21          
Jul 16 21:54 NW 11   Clear   19 10     54%              
Jul 16 20:54 NW 14   Clear   19 11     57%              
Jul 16 19:54 WNW 18   Clear   23 11     46%   22          
Jul 16 18:54 WNW 24   Clear   25 10     38%   25          
Jul 16 17:54 WNW 21   Clear   27 10     33%   27          
Jul 16 16:54 WNW 21   Clear   29 10     30%   28          
Jul 16 15:54 W 19   Clear   29 10     31%   28          
Jul 16 14:54 W 16   Clear   31 10     29%   29          
Jul 16 13:54 WNW 21   Clear   29 8     26%   28          
Jul 16 12:54 W 13   Clear   31 6     22%   29          
May 15 00:54 SW 3   Clear   9 3     68%              
May 14 19:54 NE 16   Clear   9 5     75% 7            
May 14 18:54 E 19   Clear   10 5     69% 7            
May 14 11:54 W 13   Clear   14 8     67%              
May 14 09:54 SW 6   Clear   16 8     61%              
May 13 19:54 WNW 18   Clear   10 5     72% 8            
May 12 15:54 SSW 18   Clear   13 -1     39%              
May 11 20:54 NE 21   Clear   8 -8     31% 4            
Jun 11 21:54 NE 11   Clear   -1 -1     100% -4            
Jun 11 01:54 SE 23   Clear   3 2     95% -2            
Jun 09 14:54 SSE 18   Clear   9 9     100% 6            
Jun 08 16:54 SE 23   Clear   7 7     98% 4            
Jun 06 12:54 SSE 16   Clear   23 -2     18%   22          
Jun 06 04:54 ESE 16   Clear   15        %